LFRI

La Roche-sur-Yon Airport

La Roche-sur-Yon/Les Ajoncs, France
TAF LFRI 260500Z 2606/2706 25004KT CAVOK PROB30 TEMPO 2606/2610 -SHRA BECMG 2620/2622 VRB03KT BECMG 2704/2706 13007KT
Issued Valid From Valid To
Apr-26 @ 05:00 UTC
(57 minutes ago)
Apr-26 @ 06:00 UTC
(in 3 minutes)
Apr-27 @ 06:00 UTC
(in 24 hours)
Apr-26 @ 06:00 to Apr-26 @ 20:00
TAF LFRI 260500Z 2606/2706 25004KT CAVOK
Wind Visibility Clouds Conditions
250° at 4 knots 10,000+ meters
  • No significant clouds
Temporary  (Probability 30%) Apr-26 @ 06:00 to Apr-26 @ 10:00
PROB30 TEMPO 2606/2610 -SHRA
Conditions
  • Light Rain
Becoming Apr-26 @ 20:00 to Apr-27 @ 04:00
BECMG 2620/2622 VRB03KT
Wind Visibility Clouds Conditions
Variable at 3 knots 10,000+ meters
  • No significant clouds
Becoming Apr-27 @ 04:00 to Apr-27 @ 06:00
BECMG 2704/2706 13007KT
Wind Visibility Clouds Conditions
130° at 7 knots 10,000+ meters
  • No significant clouds
TAF LFRI 260500Z 2606/2706 25004KT CAVOK PROB30 TEMPO 2606/2610 -SHRA BECMG 2620/2622 VRB03KT BECMG 2704/2706 13007KT
Issued Apr-26 @ 05:00 UTC
(57 minutes ago)
Valid From Apr-26 @ 06:00 UTC
(in 3 minutes)
Valid To Apr-27 @ 06:00 UTC
(in 24 hours)
Apr-26 @ 06:00 - Apr-26 @ 20:00
Wind Visibility
250° at 4 knots 10,000+ meters
Clouds
  • No significant clouds
Conditions
Probability 30% Temporary Apr-26 @ 06:00 - Apr-26 @ 10:00
Conditions
  • Light Rain
Becoming Apr-26 @ 20:00 - Apr-27 @ 04:00
Wind Visibility
Variable at 3 knots 10,000+ meters
Clouds
  • No significant clouds
Conditions
Becoming Apr-27 @ 04:00 - Apr-27 @ 06:00
Wind Visibility
130° at 7 knots 10,000+ meters
Clouds
  • No significant clouds
Conditions